Wappingers Falls, New York
Current Conditions -  °F | °C
As of 7:53 PM on Thursday 27 Nov 2014 (Local Time) from KPOU Reporting Station
Overcast Overcast  
Wind Chill: 32°   Ceiling: 1800
Heat Index: 32°   Visibility: 10mi
Dew Point: 28°   Wind: 3mph
Humidity: 85%   Direction: 330°NNW
Pressure: 30.04"   Gusts: NA
Location:  41.6°N, 73.91°W
Report Text: KPOU 280053Z 33003KT 10SM OVC018 00/M02 A3004 RMK AO2 SLP172 T00001022
Loading
Personal Weather Stations






























Interactive Weather Map New forecast layout! Learn more

10-Day Weather Forecast

Advertisements
Track Severe Weather on mobile